createdAt,value
2022-08-25T00:00:57.002Z,14.73
2022-08-25T00:05:58.270Z,16.95
2022-08-25T00:11:03.600Z,18.40
2022-08-25T00:16:03.049Z,18.25
2022-08-25T00:21:02.430Z,14.50
2022-08-25T00:26:02.139Z,21.00
2022-08-25T00:31:01.682Z,19.35
2022-08-25T00:36:00.489Z,10.60
2022-08-25T00:41:08.471Z,17.38
2022-08-25T00:46:10.858Z,21.25
2022-08-25T00:51:19.015Z,28.07
2022-08-25T00:56:18.396Z,13.48
2022-08-25T01:01:19.040Z,16.25
2022-08-25T01:06:17.647Z,24.73
2022-08-25T01:11:17.140Z,17.05
2022-08-25T01:16:16.332Z,17.85
2022-08-25T01:21:20.944Z,19.00
2022-08-25T01:26:25.100Z,17.55
2022-08-25T01:31:33.961Z,27.67
2022-08-25T01:36:33.283Z,17.70
2022-08-25T01:41:34.024Z,15.52
2022-08-25T01:46:36.646Z,18.70
2022-08-25T01:51:39.466Z,16.33
2022-08-25T01:56:38.266Z,24.07
2022-08-25T02:01:37.050Z,19.25
2022-08-25T02:06:36.653Z,16.05
2022-08-25T02:11:37.588Z,18.65
2022-08-25T02:16:40.909Z,16.13
2022-08-25T02:21:42.917Z,22.30
2022-08-25T02:26:42.208Z,14.95
2022-08-25T02:31:44.413Z,24.17
2022-08-25T02:36:44.007Z,13.47
2022-08-25T02:41:48.011Z,22.30
2022-08-25T02:46:47.730Z,23.45
2022-08-25T02:51:49.026Z,15.48
2022-08-25T02:56:51.298Z,20.63
2022-08-25T03:01:50.589Z,19.30
2022-08-25T03:06:49.982Z,22.25
2022-08-25T03:11:52.262Z,30.38
2022-08-25T03:16:52.016Z,39.65
2022-08-25T03:21:55.515Z,30.77
2022-08-25T03:26:56.958Z,33.20
2022-08-25T03:32:00.264Z,23.08
2022-08-25T03:36:59.152Z,23.63
2022-08-25T03:41:56.543Z,24.42
2022-08-25T03:46:55.150Z,32.78
2022-08-25T03:51:53.877Z,23.13
2022-08-25T03:56:55.407Z,23.08
2022-08-25T04:01:56.720Z,24.92
2022-08-25T04:06:55.794Z,36.00
2022-08-25T04:11:58.620Z,32.13
2022-08-25T04:16:56.588Z,24.58
2022-08-25T04:21:56.874Z,24.58
2022-08-25T04:26:56.608Z,22.95
2022-08-25T04:31:56.770Z,17.52
2022-08-25T04:36:57.826Z,27.05
2022-08-25T04:41:56.693Z,24.92
2022-08-25T04:46:55.008Z,27.70
2022-08-25T04:51:53.893Z,27.52
2022-08-25T04:56:58.710Z,30.23
2022-08-25T05:01:58.845Z,22.15
2022-08-25T05:06:58.273Z,25.73
2022-08-25T05:11:57.697Z,24.85
2022-08-25T05:16:59.421Z,26.33
2022-08-25T05:21:58.568Z,32.47
2022-08-25T05:27:00.454Z,23.00
2022-08-25T05:31:59.388Z,17.45
2022-08-25T05:37:00.647Z,38.15
2022-08-25T05:41:59.622Z,25.33
2022-08-25T05:46:59.080Z,20.48
2022-08-25T05:51:56.696Z,24.73
2022-08-25T05:56:58.827Z,25.23
2022-08-25T06:02:21.189Z,28.13
2022-08-25T06:07:22.099Z,41.13
2022-08-25T06:12:22.526Z,25.08
2022-08-25T06:17:22.656Z,22.27
2022-08-25T06:22:21.547Z,34.85
2022-08-25T06:27:22.329Z,29.38
2022-08-25T06:32:22.983Z,34.45
2022-08-25T06:37:25.205Z,23.60
2022-08-25T06:42:24.004Z,23.98
2022-08-25T06:47:25.782Z,11.88
2022-08-25T06:52:29.474Z,29.42
2022-08-25T06:57:28.355Z,22.55
2022-08-25T07:02:30.591Z,23.67
2022-08-25T07:07:43.061Z,35.55
2022-08-25T07:12:43.908Z,32.80
2022-08-25T07:17:45.568Z,18.33
2022-08-25T07:22:45.603Z,21.25
2022-08-25T07:27:46.973Z,26.02
2022-08-25T07:32:45.799Z,26.30
2022-08-25T07:37:58.758Z,18.40
2022-08-25T07:43:07.027Z,27.77
2022-08-25T07:48:09.351Z,27.55
2022-08-25T07:53:07.139Z,22.43
2022-08-25T07:58:10.121Z,22.40
2022-08-25T08:03:19.677Z,15.02
2022-08-25T08:08:30.353Z,19.00
2022-08-25T08:13:39.204Z,20.75
2022-08-25T08:18:44.820Z,35.40
2022-08-25T08:23:45.357Z,20.35
2022-08-25T08:28:52.122Z,25.67
2022-08-25T08:33:55.227Z,29.25
2022-08-25T08:38:53.859Z,21.00
2022-08-25T08:44:00.447Z,20.75
2022-08-25T08:49:08.298Z,19.42
2022-08-25T08:54:15.086Z,10.20
2022-08-25T08:59:20.859Z,22.95
2022-08-25T09:04:28.268Z,13.25
2022-08-25T09:09:30.592Z,12.23
2022-08-25T09:14:53.842Z,15.98
2022-08-25T09:20:18.179Z,24.45
2022-08-25T09:25:52.464Z,12.18
2022-08-25T09:31:05.998Z,10.20
2022-08-25T09:36:09.194Z,8.50
2022-08-25T09:41:11.518Z,10.65
2022-08-25T09:46:27.156Z,17.42
2022-08-25T09:51:38.008Z,17.98
2022-08-25T09:56:54.818Z,13.23
2022-08-25T10:01:57.348Z,12.27
2022-08-25T10:06:56.368Z,15.82
2022-08-25T10:12:06.241Z,18.02
2022-08-25T10:17:17.368Z,21.60
2022-08-25T10:22:33.697Z,13.50
2022-08-25T10:28:09.563Z,13.52
2022-08-25T10:33:17.518Z,17.27
2022-08-25T10:38:52.886Z,11.27
2022-08-25T10:44:03.933Z,17.90
2022-08-25T10:49:28.906Z,21.40
2022-08-25T10:54:51.107Z,19.20
2022-08-25T11:00:15.477Z,17.65
2022-08-25T11:05:33.335Z,13.68
2022-08-25T11:10:55.216Z,17.00
2022-08-25T11:16:17.210Z,28.27
2022-08-25T11:21:24.781Z,18.70
2022-08-25T11:26:36.817Z,25.98
2022-08-25T11:31:56.188Z,14.68
2022-08-25T11:37:31.493Z,20.73
2022-08-25T11:42:36.438Z,27.50
2022-08-25T11:47:51.751Z,23.20
2022-08-25T11:52:56.841Z,27.20
2022-08-25T11:58:30.701Z,27.80
2022-08-25T12:03:39.120Z,25.20
2022-08-25T12:08:57.532Z,23.27
2022-08-25T12:14:43.187Z,26.05
2022-08-25T12:19:48.264Z,26.30
2022-08-25T12:25:09.226Z,23.70
2022-08-25T12:30:28.868Z,25.93
2022-08-25T12:35:53.661Z,32.50
2022-08-25T12:41:16.854Z,24.85
2022-08-25T12:46:36.130Z,19.23
2022-08-25T12:51:48.469Z,29.42
2022-08-25T12:56:54.879Z,22.98
2022-08-25T13:01:57.645Z,28.25
2022-08-25T13:07:35.924Z,19.23
2022-08-25T13:12:47.227Z,32.17
2022-08-25T13:17:46.478Z,29.98
2022-08-25T13:22:57.224Z,23.08
2022-08-25T13:28:04.779Z,26.20
2022-08-25T13:33:26.333Z,28.20
2022-08-25T13:38:27.460Z,28.00
2022-08-25T13:43:29.774Z,27.73
2022-08-25T13:48:49.347Z,29.90
2022-08-25T13:53:52.836Z,28.75
2022-08-25T13:58:57.447Z,27.85
2022-08-25T14:04:21.552Z,30.65
2022-08-25T14:09:28.294Z,38.80
2022-08-25T14:14:30.716Z,40.08
2022-08-25T14:19:36.952Z,51.20
2022-08-25T14:24:40.997Z,36.75
2022-08-25T14:29:41.019Z,42.75
2022-08-25T14:34:44.845Z,42.65
2022-08-25T14:39:47.136Z,35.03
2022-08-25T14:44:47.586Z,29.33
2022-08-25T14:49:50.184Z,29.77
2022-08-25T14:54:51.066Z,25.67
2022-08-25T14:59:52.880Z,39.10
2022-08-25T15:05:06.869Z,40.42
2022-08-25T15:10:13.936Z,31.85
2022-08-25T15:15:36.033Z,35.75
2022-08-25T15:20:42.983Z,30.80
2022-08-25T15:25:52.941Z,38.08
2022-08-25T15:31:12.488Z,28.35
2022-08-25T15:36:20.657Z,32.63
2022-08-25T15:41:30.140Z,32.47
2022-08-25T15:46:30.819Z,32.20
2022-08-25T15:51:34.362Z,35.97
2022-08-25T15:56:34.248Z,39.20
2022-08-25T16:01:35.720Z,42.55
2022-08-25T16:11:56.678Z,28.92
2022-08-25T16:22:24.455Z,37.28
2022-08-25T16:27:27.148Z,47.70
2022-08-25T16:33:03.588Z,42.45
2022-08-25T16:38:07.272Z,48.33
2022-08-25T16:43:09.745Z,40.88
2022-08-25T16:48:18.357Z,38.00
2022-08-25T16:53:43.159Z,42.22
2022-08-25T16:59:10.631Z,36.40
2022-08-25T17:04:16.385Z,54.45
2022-08-25T17:09:30.931Z,46.20
2022-08-25T17:14:33.486Z,45.15
2022-08-25T17:19:35.802Z,42.28
2022-08-25T17:25:00.958Z,42.35
2022-08-25T17:30:05.495Z,43.60
2022-08-25T17:35:14.140Z,44.28
2022-08-25T17:40:19.912Z,36.45
2022-08-25T17:45:29.361Z,32.70
2022-08-25T17:50:36.455Z,53.92
2022-08-25T17:55:42.276Z,67.55
2022-08-25T18:01:23.217Z,46.38
2022-08-25T18:06:32.838Z,49.47
2022-08-25T18:11:48.975Z,55.67
2022-08-25T18:17:15.925Z,41.78
2022-08-25T18:28:28.245Z,54.45
2022-08-25T18:33:30.295Z,54.80
2022-08-25T18:38:59.843Z,53.45
2022-08-25T18:44:19.023Z,50.17
2022-08-25T18:49:22.177Z,40.47
2022-08-25T18:54:27.210Z,29.63
2022-08-25T18:59:30.784Z,44.08
2022-08-25T19:04:46.034Z,34.40
2022-08-25T19:09:50.962Z,35.13
2022-08-25T19:14:55.524Z,29.83
2022-08-25T19:20:11.207Z,41.92
2022-08-25T19:25:11.912Z,39.60
2022-08-25T19:30:13.074Z,30.10
2022-08-25T19:35:43.752Z,30.45
2022-08-25T19:41:10.705Z,41.00
2022-08-25T19:46:32.858Z,35.25
2022-08-25T19:51:40.367Z,29.13
2022-08-25T19:56:43.851Z,34.88
2022-08-25T20:01:55.857Z,39.05
2022-08-25T20:06:55.736Z,27.48
2022-08-25T20:11:55.055Z,40.80
2022-08-25T20:17:01.139Z,29.38
2022-08-25T20:22:00.640Z,27.23
2022-08-25T20:27:02.909Z,25.77
2022-08-25T20:32:06.459Z,30.90
2022-08-25T20:37:08.119Z,25.50
2022-08-25T20:42:10.217Z,27.98
2022-08-25T20:47:12.889Z,19.38
2022-08-25T20:52:20.478Z,24.80
2022-08-25T20:57:29.510Z,15.55
2022-08-25T21:02:32.576Z,23.77
2022-08-25T21:07:36.593Z,25.23
2022-08-25T21:12:53.379Z,20.27
2022-08-25T21:17:55.692Z,20.45
2022-08-25T21:23:03.156Z,23.60
2022-08-25T21:28:08.741Z,20.30
2022-08-25T21:33:08.885Z,23.35
2022-08-25T21:38:13.327Z,15.55
2022-08-25T21:43:31.849Z,15.35
2022-08-25T21:48:33.757Z,21.15
2022-08-25T21:53:33.754Z,17.98
2022-08-25T22:03:51.692Z,20.67
2022-08-25T22:08:55.107Z,24.80
2022-08-25T22:14:03.995Z,33.25
2022-08-25T22:19:17.531Z,16.85
2022-08-25T22:24:19.126Z,18.33
2022-08-25T22:29:25.990Z,23.40
2022-08-25T22:34:32.112Z,15.55
2022-08-25T22:39:36.529Z,18.35
2022-08-25T22:44:39.828Z,27.27
2022-08-25T22:49:42.627Z,21.52
2022-08-25T22:54:44.772Z,24.63
2022-08-25T22:59:45.257Z,20.45
2022-08-25T23:04:45.636Z,21.05
2022-08-25T23:09:52.284Z,23.07
2022-08-25T23:14:54.910Z,25.58
2022-08-25T23:20:19.738Z,21.00
2022-08-25T23:25:27.881Z,16.38
2022-08-25T23:30:33.162Z,19.88
2022-08-25T23:35:39.173Z,17.33
2022-08-25T23:40:44.171Z,15.73
2022-08-25T23:45:45.545Z,20.33
2022-08-25T23:50:47.209Z,22.75
2022-08-25T23:55:56.038Z,20.80
